Time;durP1;ratioP1;P1;durP2;ratioP2;P2;SDS_P1;SDS_P2;PMS_P1;PMS_P2;Temp;Humidity;BMP_temperature;BMP_pressure;BME280_temperature;BME280_humidity;BME280_pressure;Samples;Min_cycle;Max_cycle;Signal;HPM_P1;HPM_P2
2023/01/16 00:01:33;;;;;;;1.67;1.52;;;5.20;99.90;;;;;;5026632;28;20240;-84
2023/01/16 00:04:00;;;;;;;1.67;1.38;;;5.20;99.90;;;;;;5025269;28;20224;-84
2023/01/16 00:06:27;;;;;;;1.88;1.58;;;5.40;99.90;;;;;;5025667;28;20208;-84
2023/01/16 00:08:53;;;;;;;4.80;2.08;;;5.40;99.90;;;;;;5026237;28;20638;-85
2023/01/16 00:11:20;;;;;;;3.45;1.75;;;5.30;86.10;;;;;;5020188;28;20207;-84
2023/01/16 00:13:48;;;;;;;3.83;1.88;;;5.30;63.40;;;;;;5019459;28;20220;-84
2023/01/16 00:16:18;;;;;;;2.88;1.65;;;5.30;90.40;;;;;;5019590;28;20204;-85
2023/01/16 00:18:45;;;;;;;3.13;1.88;;;5.30;30.80;;;;;;5018313;28;20193;-85
2023/01/16 00:21:12;;;;;;;2.05;1.85;;;5.30;1.00;;;;;;5018800;28;20295;-84
2023/01/16 00:23:39;;;;;;;4.00;1.77;;;5.40;99.90;;;;;;5017791;28;20211;-84
2023/01/16 00:26:08;;;;;;;3.28;1.63;;;5.30;61.70;;;;;;5024755;28;20291;-84
2023/01/16 00:28:36;;;;;;;3.28;2.08;;;5.30;99.90;;;;;;5029217;28;20230;-84
2023/01/16 00:31:05;;;;;;;2.13;1.40;;;5.30;34.40;;;;;;5036665;28;20205;-84
2023/01/16 00:33:32;;;;;;;1.80;1.48;;;5.30;99.90;;;;;;5039908;28;20258;-84
2023/01/16 00:35:58;;;;;;;2.63;2.47;;;5.20;99.90;;;;;;5040933;28;20208;-84
2023/01/16 00:38:25;;;;;;;2.35;2.00;;;5.30;99.60;;;;;;5041097;28;20301;-84
2023/01/16 00:40:52;;;;;;;1.83;1.67;;;5.30;94.80;;;;;;5036627;28;20247;-84
2023/01/16 00:43:19;;;;;;;6.57;3.15;;;5.10;99.90;;;;;;5037542;28;20268;-84
2023/01/16 00:45:46;;;;;;;3.35;2.47;;;5.20;99.90;;;;;;5039786;28;20217;-84
2023/01/16 00:48:14;;;;;;;3.60;1.88;;;5.20;19.90;;;;;;5041427;28;20299;-83
2023/01/16 00:50:41;;;;;;;4.00;2.30;;;5.00;99.90;;;;;;5041187;28;20196;-83
2023/01/16 00:53:08;;;;;;;6.00;3.42;;;5.20;99.90;;;;;;5041059;28;20196;-84
2023/01/16 00:55:36;;;;;;;5.93;3.28;;;5.10;99.90;;;;;;5041257;28;20236;-83
2023/01/16 00:58:03;;;;;;;3.10;2.20;;;5.40;99.90;;;;;;5040691;28;20196;-83
2023/01/16 01:00:30;;;;;;;2.15;1.95;;;5.00;99.90;;;;;;5039957;28;20224;-84
2023/01/16 01:02:56;;;;;;;2.47;2.28;;;5.00;99.90;;;;;;5036993;28;20201;-84
2023/01/16 01:05:25;;;;;;;2.20;1.60;;;5.10;1.00;;;;;;5031571;28;20228;-85
2023/01/16 01:07:51;;;;;;;3.53;2.13;;;4.90;99.90;;;;;;5030778;28;20259;-84
2023/01/16 01:10:19;;;;;;;1.75;1.65;;;4.90;1.00;;;;;;5024827;28;20210;-85
2023/01/16 01:12:45;;;;;;;3.28;1.55;;;4.80;1.00;;;;;;5021339;28;20205;-85
2023/01/16 01:15:12;;;;;;;1.50;1.40;;;4.70;1.00;;;;;;5020793;28;20239;-84
2023/01/16 01:17:39;;;;;;;1.75;1.65;;;4.60;1.00;;;;;;5022986;28;20207;-84
2023/01/16 01:20:08;;;;;;;4.45;1.40;;;4.60;1.00;;;;;;5034710;28;20291;-84
2023/01/16 01:22:36;;;;;;;1.73;1.40;;;4.60;77.30;;;;;;5021498;28;20626;-84
2023/01/16 01:25:03;;;;;;;2.65;1.65;;;4.60;1.00;;;;;;5021049;28;20225;-86
2023/01/16 01:27:30;;;;;;;5.35;1.65;;;4.60;1.00;;;;;;5032919;28;20267;-85
2023/01/16 01:29:56;;;;;;;3.15;1.50;;;4.50;34.00;;;;;;5028140;28;20255;-85
2023/01/16 01:32:23;;;;;;;7.47;2.35;;;4.50;99.90;;;;;;5022749;28;20217;-85
2023/01/16 01:34:50;;;;;;;2.38;1.83;;;4.70;1.00;;;;;;5020293;28;20599;-85
2023/01/16 01:37:17;;;;;;;3.38;2.20;;;4.40;99.90;;;;;;5019728;28;20208;-85
2023/01/16 01:39:45;;;;;;;2.17;1.98;;;4.40;99.90;;;;;;5020678;28;20214;-85
2023/01/16 01:45:01;;;;;;;2.22;1.63;;;4.40;99.90;;;;;;5021037;28;20235;-85
2023/01/16 01:47:33;;;;;;;2.15;1.80;;;4.40;1.00;;;;;;5021456;28;20205;-84
2023/01/16 01:50:05;;;;;;;2.00;1.90;;;4.30;1.00;;;;;;5019688;28;20271;-85
2023/01/16 01:52:33;;;;;;;2.15;1.92;;;4.40;1.00;;;;;;5019518;28;20195;-84
2023/01/16 01:55:05;;;;;;;1.80;1.70;;;4.30;1.00;;;;;;5020136;28;20307;-84
2023/01/16 01:57:35;;;;;;;7.03;2.05;;;4.30;1.00;;;;;;5019299;28;20197;-85
2023/01/16 02:00:05;;;;;;;1.60;1.50;;;4.30;1.00;;;;;;5020402;28;20223;-85
2023/01/16 02:02:35;;;;;;;3.53;2.00;;;4.30;92.30;;;;;;5019286;28;20181;-85
2023/01/16 02:05:06;;;;;;;2.55;1.60;;;4.60;99.90;;;;;;5018575;28;20224;-84
2023/01/16 02:07:33;;;;;;;2.42;2.00;;;4.30;1.00;;;;;;5018541;28;20763;-85
2023/01/16 02:10:11;;;;;;;3.72;1.73;;;4.30;1.00;;;;;;5018865;28;20558;-84
2023/01/16 02:12:38;;;;;;;1.80;1.70;;;4.30;1.00;;;;;;5018458;28;20275;-84
2023/01/16 02:15:06;;;;;;;1.70;1.60;;;4.40;1.00;;;;;;5018849;28;20228;-85
2023/01/16 02:20:21;;;;;;;2.88;1.88;;;4.30;1.00;;;;;;5018790;28;20183;-84
2023/01/16 02:23:16;;;;;;;1.35;1.25;;;4.40;1.00;;;;;;5019129;28;20280;-83
2023/01/16 02:26:16;;;;;;;2.67;1.40;;;4.50;99.90;;;;;;5018421;28;20258;-84
2023/01/16 02:29:16;;;;;;;3.80;3.28;;;4.50;1.00;;;;;;5018933;28;20598;-84
2023/01/16 02:31:51;;;;;;;3.80;2.35;;;4.50;99.90;;;;;;5019010;28;20193;-85
2023/01/16 02:34:32;;;;;;;3.63;1.20;;;4.50;99.90;;;;;;5018599;28;20226;-83
2023/01/16 02:37:09;;;;;;;2.00;1.23;;;4.50;99.90;;;;;;5021614;28;20280;-84
2023/01/16 02:39:41;;;;;;;6.00;2.50;;;4.50;99.90;;;;;;5021529;28;20196;-84
2023/01/16 02:42:17;;;;;;;1.58;1.30;;;4.60;99.90;;;;;;5022433;28;20694;-84
2023/01/16 02:44:51;;;;;;;1.88;1.42;;;4.70;1.00;;;;;;5021117;28;20243;-84
2023/01/16 02:47:25;;;;;;;1.67;1.58;;;4.50;99.90;;;;;;5020066;28;20188;-84
2023/01/16 02:50:03;;;;;;;1.77;1.40;;;4.50;1.00;;;;;;5019227;28;20193;-84
2023/01/16 02:52:36;;;;;;;1.10;1.00;;;4.50;1.00;;;;;;5019001;28;20188;-84
2023/01/16 02:55:08;;;;;;;1.45;1.35;;;4.50;1.00;;;;;;5018498;28;20311;-85
2023/01/16 02:57:41;;;;;;;1.40;1.30;;;4.50;99.90;;;;;;5018141;28;20200;-84
2023/01/16 03:00:10;;;;;;;1.30;1.20;;;4.40;1.00;;;;;;5018584;28;20192;-84
2023/01/16 03:02:38;;;;;;;1.50;1.40;;;4.50;99.90;;;;;;5019689;28;20239;-84
2023/01/16 03:05:06;;;;;;;2.85;1.35;;;4.30;1.00;;;;;;5019132;28;20286;-85
2023/01/16 03:08:12;;;;;;;1.30;1.20;;;4.30;1.00;;;;;;5026873;28;20274;-85
2023/01/16 03:11:22;;;;;;;2.05;1.23;;;4.30;53.70;;;;;;5017309;28;20648;-84
2023/01/16 03:13:57;;;;;;;1.40;1.30;;;4.20;57.20;;;;;;5017675;28;20228;-84
2023/01/16 03:16:31;;;;;;;2.38;2.05;;;4.20;99.90;;;;;;5017318;28;20194;-84
2023/01/16 03:19:12;;;;;;;2.00;1.05;;;4.20;99.90;;;;;;5016737;28;20216;-85
2023/01/16 03:21:47;;;;;;;3.22;1.50;;;4.20;99.90;;;;;;5017891;28;20208;-84
2023/01/16 03:24:26;;;;;;;1.08;1.05;;;4.40;99.90;;;;;;5018296;28;20224;-84
2023/01/16 03:27:00;;;;;;;3.28;1.50;;;4.30;1.00;;;;;;5018134;28;20204;-85
2023/01/16 03:29:31;;;;;;;2.03;1.65;;;4.30;1.00;;;;;;5016948;28;20208;-84
2023/01/16 03:32:07;;;;;;;2.47;1.60;;;4.30;99.90;;;;;;5017443;28;20195;-84
2023/01/16 03:34:41;;;;;;;1.40;1.30;;;4.30;99.90;;;;;;5017099;28;20575;-84
2023/01/16 03:37:12;;;;;;;1.80;1.70;;;4.30;99.90;;;;;;5017561;28;20284;-84
2023/01/16 03:39:43;;;;;;;1.70;1.60;;;4.40;47.60;;;;;;5023538;28;20187;-84
2023/01/16 03:42:15;;;;;;;1.83;1.58;;;4.20;99.90;;;;;;5022612;28;20220;-84
2023/01/16 03:44:49;;;;;;;1.85;1.30;;;4.20;99.90;;;;;;5039383;22;20296;-86
2023/01/16 03:47:20;;;;;;;2.35;1.80;;;4.50;1.00;;;;;;5026607;28;20192;-86
2023/01/16 03:49:52;;;;;;;2.38;1.55;;;4.20;99.90;;;;;;5023971;28;20311;-85
2023/01/16 03:52:21;;;;;;;3.38;1.50;;;4.10;99.90;;;;;;5024275;28;20272;-85
2023/01/16 03:54:56;;;;;;;1.90;1.67;;;4.10;99.90;;;;;;5025093;28;20723;-85
2023/01/16 03:57:27;;;;;;;2.17;1.80;;;4.20;1.00;;;;;;5025870;28;20179;-85
2023/01/16 03:59:54;;;;;;;3.40;1.42;;;4.10;99.90;;;;;;5038684;28;20169;-84
2023/01/16 04:02:26;;;;;;;4.20;1.83;;;4.10;99.90;;;;;;5034248;28;20212;-86
2023/01/16 04:05:00;;;;;;;4.38;1.40;;;4.10;99.90;;;;;;5029857;28;20316;-84
2023/01/16 04:07:34;;;;;;;2.22;1.60;;;4.10;99.90;;;;;;5029559;28;20253;-86
2023/01/16 04:10:05;;;;;;;1.70;1.60;;;4.10;1.00;;;;;;5029750;28;20762;-86
2023/01/16 04:12:36;;;;;;;2.78;1.52;;;4.10;99.90;;;;;;5029766;28;20599;-84
2023/01/16 04:15:05;;;;;;;2.78;1.80;;;4.00;99.90;;;;;;5029040;28;20256;-86
2023/01/16 04:17:32;;;;;;;1.67;1.58;;;4.00;1.00;;;;;;5028514;28;20268;-86
2023/01/16 04:20:00;;;;;;;2.60;2.00;;;3.90;1.00;;;;;;5027906;28;20204;-86
2023/01/16 04:22:29;;;;;;;2.17;1.65;;;4.00;71.00;;;;;;5028137;28;20243;-85
2023/01/16 04:24:58;;;;;;;2.80;1.38;;;4.00;1.00;;;;;;5028085;28;20636;-85
2023/01/16 04:27:25;;;;;;;3.97;1.80;;;4.20;1.00;;;;;;5028402;28;20573;-85
2023/01/16 04:29:52;;;;;;;1.98;1.60;;;4.00;1.00;;;;;;5030549;28;20228;-84
2023/01/16 04:32:18;;;;;;;1.83;1.52;;;3.90;1.00;;;;;;5032488;28;20208;-83
2023/01/16 04:34:45;;;;;;;3.05;1.63;;;3.90;1.00;;;;;;5031252;28;20235;-86
2023/01/16 04:37:15;;;;;;;3.30;1.55;;;4.00;1.00;;;;;;5029555;28;20208;-85
2023/01/16 04:39:42;;;;;;;2.30;1.50;;;4.00;1.00;;;;;;5028057;28;20228;-85
2023/01/16 04:42:09;;;;;;;1.83;1.38;;;4.00;1.00;;;;;;5027959;28;20201;-86
2023/01/16 04:44:36;;;;;;;3.35;2.15;;;4.00;1.00;;;;;;5027457;28;20639;-86
2023/01/16 04:47:03;;;;;;;3.45;1.30;;;4.00;1.00;;;;;;5027214;28;20213;-85
2023/01/16 04:49:30;;;;;;;2.67;1.83;;;3.90;1.00;;;;;;5026106;28;20216;-85
2023/01/16 04:51:57;;;;;;;3.38;1.33;;;4.00;1.00;;;;;;5025382;28;20530;-84
2023/01/16 04:54:25;;;;;;;6.03;2.20;;;3.90;1.00;;;;;;5026161;28;20244;-85
2023/01/16 04:56:52;;;;;;;2.10;1.80;;;3.90;1.00;;;;;;5026308;28;20645;-84
2023/01/16 04:59:19;;;;;;;3.65;1.70;;;3.90;99.90;;;;;;5026103;28;20204;-85
2023/01/16 05:01:46;;;;;;;1.90;1.70;;;3.90;99.90;;;;;;5026841;28;20232;-85
2023/01/16 05:04:15;;;;;;;1.50;1.40;;;4.10;99.90;;;;;;5027675;28;20273;-85
2023/01/16 05:06:42;;;;;;;2.65;1.90;;;3.80;99.90;;;;;;5038038;28;20202;-84
2023/01/16 05:09:09;;;;;;;2.05;1.40;;;3.80;99.90;;;;;;5038745;28;20283;-83
2023/01/16 05:11:37;;;;;;;1.92;1.80;;;3.80;99.90;;;;;;5035723;28;20253;-83
2023/01/16 05:14:07;;;;;;;3.55;2.25;;;3.40;1.00;;;;;;5038738;28;20216;-83
2023/01/16 05:16:33;;;;;;;2.13;1.95;;;3.80;99.90;;;;;;5033271;28;20215;-85
2023/01/16 05:19:00;;;;;;;2.35;1.77;;;3.80;99.90;;;;;;5038370;28;20215;-83
2023/01/16 05:21:27;;;;;;;5.57;1.83;;;3.80;1.00;;;;;;5036181;28;20284;-83
2023/01/16 05:23:54;;;;;;;2.03;1.88;;;3.80;1.00;;;;;;5037473;28;20205;-84
2023/01/16 05:26:21;;;;;;;2.10;1.50;;;3.80;46.10;;;;;;5037278;28;20228;-84
2023/01/16 05:28:49;;;;;;;4.45;1.90;;;3.80;69.10;;;;;;5029446;28;20247;-85
2023/01/16 05:31:16;;;;;;;2.25;1.92;;;3.80;1.00;;;;;;5026147;28;20687;-85
2023/01/16 05:33:43;;;;;;;2.50;2.30;;;3.80;1.00;;;;;;5025147;28;20209;-85
2023/01/16 05:36:10;;;;;;;3.17;1.60;;;4.60;1.00;;;;;;5029404;28;20251;-84
2023/01/16 05:38:36;;;;;;;5.47;2.33;;;3.80;1.00;;;;;;5031092;28;20216;-85
2023/01/16 05:41:03;;;;;;;1.70;1.50;;;3.80;1.00;;;;;;5026550;28;20207;-85
2023/01/16 05:43:30;;;;;;;3.63;1.88;;;3.80;1.00;;;;;;5029104;28;20273;-83
2023/01/16 05:45:59;;;;;;;2.50;2.30;;;3.80;1.00;;;;;;5033481;28;20302;-85
2023/01/16 05:48:26;;;;;;;2.10;1.88;;;3.80;99.90;;;;;;5033410;28;20228;-84
2023/01/16 05:50:52;;;;;;;2.80;2.20;;;3.80;1.00;;;;;;5029835;28;20295;-84
2023/01/16 05:53:19;;;;;;;3.25;2.15;;;3.80;1.00;;;;;;5027458;28;20730;-85
2023/01/16 05:55:47;;;;;;;3.50;2.33;;;3.80;1.00;;;;;;5030712;28;20212;-86
2023/01/16 05:58:16;;;;;;;3.55;1.50;;;3.80;1.00;;;;;;5039847;28;20235;-86
2023/01/16 06:00:43;;;;;;;2.15;1.85;;;3.80;1.00;;;;;;5030621;28;20240;-84
2023/01/16 06:03:11;;;;;;;3.63;2.20;;;3.80;1.00;;;;;;5033091;28;20239;-84
2023/01/16 06:05:38;;;;;;;2.60;2.40;;;3.80;99.90;;;;;;5024986;28;20231;-85
2023/01/16 06:08:05;;;;;;;4.60;2.65;;;3.80;1.00;;;;;;5024846;28;20272;-85
2023/01/16 06:10:32;;;;;;;7.43;2.90;;;3.80;99.90;;;;;;5025071;28;20703;-85
2023/01/16 06:13:01;;;;;;;3.67;2.60;;;3.80;99.90;;;;;;5025322;28;20239;-84
2023/01/16 06:15:27;;;;;;;2.92;2.30;;;3.80;99.90;;;;;;5024444;28;20256;-85
2023/01/16 06:17:56;;;;;;;6.38;2.30;;;3.80;99.90;;;;;;5026633;28;20291;-85
2023/01/16 06:20:24;;;;;;;3.90;1.90;;;4.00;99.90;;;;;;5026295;28;20705;-85
2023/01/16 06:22:51;;;;;;;2.42;1.80;;;3.70;99.90;;;;;;5024790;28;20211;-85
2023/01/16 06:25:18;;;;;;;2.95;1.90;;;3.80;99.90;;;;;;5024919;28;20666;-86
2023/01/16 06:27:48;;;;;;;7.53;2.38;;;3.90;1.00;;;;;;5023746;28;20211;-86
2023/01/16 06:30:16;;;;;;;6.05;1.88;;;3.80;99.90;;;;;;5024562;28;20284;-86
2023/01/16 06:32:43;;;;;;;2.45;1.90;;;3.80;99.90;;;;;;5034808;28;20199;-84
2023/01/16 06:35:10;;;;;;;3.72;1.70;;;3.80;99.90;;;;;;5039228;28;20300;-84
2023/01/16 06:37:38;;;;;;;5.28;2.60;;;3.80;99.90;;;;;;5038449;28;20201;-85
2023/01/16 06:40:06;;;;;;;2.83;2.00;;;3.80;99.90;;;;;;5023160;28;20223;-84
2023/01/16 06:42:33;;;;;;;2.78;1.63;;;3.90;99.90;;;;;;5025052;28;20216;-86
2023/01/16 06:45:00;;;;;;;2.90;1.60;;;3.80;99.90;;;;;;5024529;28;20770;-84
2023/01/16 06:47:28;;;;;;;2.38;2.17;;;4.00;1.00;;;;;;5023996;28;20205;-85
2023/01/16 06:49:55;;;;;;;1.80;1.70;;;3.80;99.90;;;;;;5024730;28;20227;-84
2023/01/16 06:52:22;;;;;;;3.72;1.60;;;3.80;1.00;;;;;;5023936;28;20232;-86
2023/01/16 06:54:50;;;;;;;7.35;2.70;;;3.80;36.10;;;;;;5024768;28;20259;-85
2023/01/16 06:57:17;;;;;;;3.95;2.20;;;4.00;99.90;;;;;;5024480;28;20204;-84
2023/01/16 06:59:44;;;;;;;1.70;1.60;;;3.80;14.70;;;;;;5026530;28;20207;-86
2023/01/16 07:02:11;;;;;;;4.68;2.20;;;3.80;49.70;;;;;;5025676;28;20205;-86
2023/01/16 07:04:37;;;;;;;3.00;2.30;;;3.90;14.60;;;;;;5024140;28;20263;-86
2023/01/16 07:07:04;;;;;;;7.18;3.75;;;4.00;95.10;;;;;;5023821;28;20611;-86
2023/01/16 07:09:32;;;;;;;2.17;1.98;;;3.80;1.00;;;;;;5026481;28;20773;-86
2023/01/16 07:12:00;;;;;;;3.38;2.10;;;3.80;52.90;;;;;;5023296;28;20295;-85
2023/01/16 07:22:43;;;;;;;2.50;2.28;;;3.90;1.00;;;;;;5033691;28;20187;-84
2023/01/16 07:25:14;;;;;;;5.35;2.00;;;3.90;1.00;;;;;;5032549;28;20643;-84
2023/01/16 07:27:44;;;;;;;4.57;2.22;;;4.00;1.00;;;;;;5030420;28;20605;-85
2023/01/16 07:30:12;;;;;;;3.85;2.05;;;3.90;1.00;;;;;;5025322;28;20239;-86
2023/01/16 07:32:40;;;;;;;5.10;1.80;;;3.90;1.00;;;;;;5024052;28;20211;-85
2023/01/16 07:35:08;;;;;;;3.35;2.38;;;3.90;1.00;;;;;;5024285;28;20286;-85
2023/01/16 07:37:35;;;;;;;3.53;2.42;;;3.90;1.00;;;;;;5024460;28;20212;-83
2023/01/16 07:40:02;;;;;;;3.17;2.35;;;3.80;1.00;;;;;;5022795;28;20200;-86
2023/01/16 07:42:28;;;;;;;5.30;2.70;;;3.80;1.00;;;;;;5022912;28;20299;-86
2023/01/16 07:44:57;;;;;;;6.90;3.42;;;4.00;99.90;;;;;;5022265;28;20231;-86
2023/01/16 07:47:23;;;;;;;4.88;2.45;;;3.80;1.00;;;;;;5022929;28;20196;-86
2023/01/16 07:49:50;;;;;;;3.35;2.00;;;3.90;1.00;;;;;;5022952;28;20229;-86
2023/01/16 07:52:18;;;;;;;2.53;2.30;;;3.90;1.00;;;;;;5022157;28;20240;-86
2023/01/16 07:54:45;;;;;;;3.22;1.83;;;3.90;1.00;;;;;;5022312;28;20224;-85
2023/01/16 07:57:11;;;;;;;7.38;1.70;;;3.90;99.90;;;;;;5022812;28;20660;-85
2023/01/16 07:59:38;;;;;;;2.50;1.85;;;3.90;1.00;;;;;;5022658;28;20687;-86
2023/01/16 08:02:08;;;;;;;2.13;1.92;;;3.90;99.90;;;;;;5022977;28;20713;-84
2023/01/16 08:04:35;;;;;;;3.70;1.80;;;3.90;99.90;;;;;;5023496;28;20248;-85
2023/01/16 08:07:02;;;;;;;3.50;2.85;;;3.90;99.90;;;;;;5022940;28;20204;-85
2023/01/16 08:09:28;;;;;;;5.05;3.38;;;3.90;99.90;;;;;;5022710;28;20232;-85
2023/01/16 08:11:55;;;;;;;5.60;2.10;;;3.90;99.90;;;;;;5023342;28;20264;-86
2023/01/16 08:14:22;;;;;;;8.20;2.35;;;4.00;99.90;;;;;;5022824;28;20224;-86
2023/01/16 08:16:49;;;;;;;2.75;1.92;;;4.00;99.90;;;;;;5023215;28;20586;-85
2023/01/16 08:19:17;;;;;;;3.25;2.10;;;4.10;95.70;;;;;;5033392;28;20265;-85
2023/01/16 08:21:44;;;;;;;5.13;1.90;;;;;;;;;;5030569;28;20243;-84
2023/01/16 08:24:14;;;;;;;5.13;2.72;;;3.90;1.00;;;;;;5030680;28;20269;-84
2023/01/16 08:26:42;;;;;;;5.15;3.30;;;4.40;25.90;;;;;;5023423;28;20220;-85
2023/01/16 08:29:10;;;;;;;6.50;5.38;;;4.20;1.00;;;;;;5021273;28;20307;-84
2023/01/16 08:31:37;;;;;;;2.50;1.90;;;4.20;1.00;;;;;;5025834;28;20205;-83
2023/01/16 08:34:04;;;;;;;3.50;1.80;;;4.30;1.00;;;;;;5035230;28;20239;-83
2023/01/16 08:36:32;;;;;;;3.85;1.80;;;4.30;1.00;;;;;;5036410;28;20205;-83
2023/01/16 08:38:59;;;;;;;2.45;1.58;;;4.60;1.00;;;;;;5036768;28;20197;-84
2023/01/16 08:52:31;;;;;;;3.83;2.90;;;4.30;1.00;;;;;;5026846;28;20235;-84
2023/01/16 08:55:01;;;;;;;2.00;1.70;;;4.30;1.00;;;;;;5027097;28;20224;-85
2023/01/16 08:57:29;;;;;;;2.38;2.03;;;6.30;99.90;;;;;;5026624;28;20272;-85
2023/01/16 08:59:56;;;;;;;2.13;1.98;;;4.30;1.00;;;;;;5025325;28;20207;-86
2023/01/16 09:02:23;;;;;;;4.65;2.17;;;4.20;99.90;;;;;;5026208;28;20209;-87
2023/01/16 09:04:50;;;;;;;2.13;2.03;;;5.30;1.00;;;;;;5026393;28;20228;-85
2023/01/16 09:07:17;;;;;;;3.42;2.13;;;4.20;1.00;;;;;;5026637;28;20215;-85
2023/01/16 09:09:45;;;;;;;3.03;1.90;;;4.20;1.00;;;;;;5029003;28;20236;-85
2023/01/16 09:14:57;;;;;;;2.33;2.13;;;4.20;1.00;;;;;;5026554;28;20219;-86
2023/01/16 09:17:25;;;;;;;2.08;1.88;;;4.10;99.90;;;;;;5034939;28;20203;-86
2023/01/16 09:19:52;;;;;;;2.88;1.98;;;4.10;1.00;;;;;;5040135;28;20201;-85
2023/01/16 09:22:20;;;;;;;2.42;2.22;;;4.20;1.00;;;;;;5028253;28;20240;-85
2023/01/16 09:24:48;;;;;;;1.70;1.60;;;4.20;99.90;;;;;;5027050;28;20308;-86
2023/01/16 09:27:18;;;;;;;4.28;2.00;;;4.20;99.90;;;;;;5026043;28;20215;-85
2023/01/16 09:29:45;;;;;;;4.43;1.77;;;4.20;99.90;;;;;;5025936;28;20208;-86
2023/01/16 09:32:11;;;;;;;3.92;2.10;;;4.20;99.90;;;;;;5025728;28;20231;-87
2023/01/16 09:34:41;;;;;;;2.78;2.60;;;4.30;84.50;;;;;;5025924;28;20224;-84
2023/01/16 09:37:08;;;;;;;4.82;2.60;;;4.30;99.90;;;;;;5037115;28;20204;-85
2023/01/16 09:39:35;;;;;;;2.97;1.70;;;4.30;1.00;;;;;;5037892;28;20219;-83
2023/01/16 09:45:12;;;;;;;5.28;1.88;;;4.40;1.00;;;;;;5051134;22;20263;-84
2023/01/16 09:47:41;;;;;;;2.72;2.35;;;5.20;99.90;;;;;;5035945;28;20208;-84
2023/01/16 09:50:15;;;;;;;4.10;2.30;;;4.50;1.00;;;;;;5036884;28;20255;-84
2023/01/16 09:58:36;;;;;;;2.40;2.20;;;4.50;1.00;;;;;;5025403;28;20192;-84
2023/01/16 10:01:05;;;;;;;6.35;2.58;;;4.70;1.00;;;;;;5026811;28;20639;-85
2023/01/16 10:03:32;;;;;;;6.07;4.45;;;4.80;1.00;;;;;;5026997;28;20280;-85
2023/01/16 10:06:10;;;;;;;4.50;2.42;;;4.80;1.00;;;;;;5025793;28;20311;-85
2023/01/16 10:08:45;;;;;;;3.70;2.25;;;4.90;1.00;;;;;;5037676;28;20188;-85
2023/01/16 10:11:18;;;;;;;4.90;2.38;;;5.00;99.90;;;;;;5029455;28;20283;-85
2023/01/16 10:14:06;;;;;;;5.03;2.00;;;5.00;99.90;;;;;;5028430;28;20200;-84
2023/01/16 10:16:43;;;;;;;4.00;2.38;;;5.20;1.00;;;;;;5025460;28;20225;-85
2023/01/16 10:19:21;;;;;;;3.60;2.05;;;5.30;99.90;;;;;;5028227;28;20188;-85
2023/01/16 10:22:07;;;;;;;2.45;2.05;;;5.40;99.90;;;;;;5026128;28;20719;-85
2023/01/16 10:24:44;;;;;;;3.88;2.42;;;5.80;99.90;;;;;;5031055;28;20256;-84
2023/01/16 10:27:19;;;;;;;4.82;2.00;;;5.60;39.20;;;;;;5031269;28;20256;-83
2023/01/16 10:29:52;;;;;;;5.10;1.80;;;5.70;16.50;;;;;;5035684;28;20185;-84
2023/01/16 10:32:25;;;;;;;1.45;1.35;;;5.70;1.00;;;;;;5029631;28;20185;-85
2023/01/16 10:35:00;;;;;;;3.20;1.92;;;5.80;1.00;;;;;;5029214;28;20229;-84
2023/01/16 10:37:28;;;;;;;3.67;2.00;;;5.80;1.00;;;;;;5027236;28;20188;-84
2023/01/16 10:39:56;;;;;;;4.30;1.88;;;5.90;1.00;;;;;;5026821;28;20240;-84
2023/01/16 10:50:47;;;;;;;1.55;1.45;;;6.00;1.00;;;;;;5025352;28;20266;-85
2023/01/16 10:53:15;;;;;;;4.40;1.95;;;6.00;1.00;;;;;;5024056;28;20216;-84
2023/01/16 10:55:51;;;;;;;1.60;1.50;;;6.00;1.00;;;;;;5023199;28;20755;-85
2023/01/16 10:58:25;;;;;;;3.10;1.83;;;6.10;1.00;;;;;;5024572;28;20605;-84
2023/01/16 11:00:56;;;;;;;2.78;1.20;;;6.10;1.00;;;;;;5025194;28;20185;-85
2023/01/16 11:03:33;;;;;;;1.50;1.40;;;6.10;1.00;;;;;;5027965;28;20220;-85
2023/01/16 11:06:15;;;;;;;2.42;2.17;;;6.20;1.00;;;;;;5026615;28;20223;-84
2023/01/16 11:08:45;;;;;;;2.15;1.80;;;6.20;1.00;;;;;;5021156;28;20710;-84
2023/01/16 11:19:41;;;;;;;3.10;1.73;;;6.40;1.00;;;;;;5030909;28;20216;-84
2023/01/16 11:22:22;;;;;;;1.52;1.40;;;6.40;1.00;;;;;;5035257;28;20181;-84
2023/01/16 11:24:49;;;;;;;1.77;1.60;;;6.30;99.90;;;;;;5027595;28;20271;-84
2023/01/16 11:27:23;;;;;;;3.28;1.55;;;6.50;1.00;;;;;;5026483;28;20212;-84
2023/01/16 11:29:53;;;;;;;4.40;2.20;;;6.50;1.00;;;;;;5029655;28;20219;-84
2023/01/16 11:32:24;;;;;;;2.45;2.05;;;6.50;1.00;;;;;;5036027;28;20268;-84
2023/01/16 11:34:54;;;;;;;2.70;2.10;;;6.60;1.00;;;;;;5036512;28;20230;-84
2023/01/16 11:37:22;;;;;;;3.92;1.83;;;6.60;1.00;;;;;;5035225;28;20197;-83
2023/01/16 11:39:53;;;;;;;3.85;1.90;;;6.70;1.00;;;;;;5024937;28;20264;-84
2023/01/16 11:48:22;;;;;;;2.00;1.52;;;6.80;1.00;;;;;;5024555;28;20188;-83
2023/01/16 11:50:51;;;;;;;3.95;1.98;;;6.80;1.00;;;;;;5024607;28;20323;-84
2023/01/16 11:53:18;;;;;;;5.75;2.03;;;6.80;1.00;;;;;;5024836;28;20211;-85
2023/01/16 11:56:10;;;;;;;3.92;1.98;;;6.70;8.70;;;;;;5024374;28;20248;-86
2023/01/16 11:58:48;;;;;;;2.47;2.10;;;6.70;87.10;;;;;;5024834;28;20582;-84
2023/01/16 12:01:21;;;;;;;5.20;1.85;;;6.80;1.00;;;;;;5024736;28;20542;-84
2023/01/16 12:04:02;;;;;;;1.90;1.35;;;6.80;1.00;;;;;;5024834;28;20201;-85
2023/01/16 12:06:44;;;;;;;2.75;1.40;;;6.90;1.00;;;;;;5024620;28;20255;-86
2023/01/16 12:09:39;;;;;;;5.30;2.28;;;6.80;1.00;;;;;;5030713;28;20252;-84
2023/01/16 12:15:18;;;;;;;2.67;2.40;;;6.90;1.00;;;;;;5027732;28;20246;-85
2023/01/16 12:18:02;;;;;;;3.17;2.08;;;6.90;93.30;;;;;;5029578;28;20215;-86
2023/01/16 12:20:44;;;;;;;3.05;1.90;;;6.90;1.00;;;;;;5030175;28;20199;-85
2023/01/16 12:23:33;;;;;;;4.07;1.80;;;6.90;1.00;;;;;;5028263;28;20196;-85
2023/01/16 12:26:11;;;;;;;3.03;1.83;;;6.90;1.00;;;;;;5027809;28;20227;-85
2023/01/16 12:28:49;;;;;;;3.35;2.40;;;6.80;1.00;;;;;;5032570;28;20189;-84
2023/01/16 12:31:36;;;;;;;3.25;1.58;;;6.90;1.00;;;;;;5032200;28;20236;-85
2023/01/16 12:34:30;;;;;;;6.45;2.20;;;6.90;1.00;;;;;;5026360;28;20205;-85
2023/01/16 12:37:12;;;;;;;2.00;1.50;;;7.00;1.00;;;;;;5023429;28;20212;-84
2023/01/16 12:39:45;;;;;;;2.55;1.90;;;7.00;1.00;;;;;;5026225;28;20216;-85
2023/01/16 12:45:18;;;;;;;3.00;2.10;;;7.00;1.00;;;;;;5029090;28;20238;-85
2023/01/16 12:48:00;;;;;;;3.55;1.88;;;7.00;91.00;;;;;;5027425;28;20231;-85
2023/01/16 12:50:40;;;;;;;2.55;2.05;;;7.10;54.00;;;;;;5024923;28;20225;-84
2023/01/16 12:53:35;;;;;;;2.78;2.47;;;7.00;1.00;;;;;;5025458;28;20180;-85
2023/01/16 12:56:23;;;;;;;10.88;2.05;;;7.10;1.00;;;;;;5020126;28;20235;-85
2023/01/16 12:58:54;;;;;;;2.20;1.88;;;7.20;55.00;;;;;;5026504;28;20225;-84
2023/01/16 13:01:26;;;;;;;2.38;1.85;;;7.10;1.00;;;;;;5028474;28;20181;-85
2023/01/16 13:03:58;;;;;;;2.40;2.20;;;6.90;45.10;;;;;;5029807;28;20193;-84
2023/01/16 13:06:32;;;;;;;1.88;1.70;;;7.10;1.00;;;;;;5030163;28;20240;-85
2023/01/16 13:09:08;;;;;;;3.35;1.70;;;7.20;1.00;;;;;;5030233;28;20200;-85
2023/01/16 13:14:38;;;;;;;7.05;4.18;;;7.50;1.00;;;;;;5030534;28;20211;-84
2023/01/16 13:17:11;;;;;;;3.50;2.38;;;7.20;1.00;;;;;;5031392;28;20204;-84
2023/01/16 13:19:41;;;;;;;1.52;1.40;;;7.10;1.00;;;;;;5030214;28;20291;-85
2023/01/16 13:22:24;;;;;;;2.42;2.00;;;7.10;1.00;;;;;;5031533;28;20193;-85
2023/01/16 13:24:57;;;;;;;3.10;2.03;;;7.20;48.40;;;;;;5031239;28;20239;-84
2023/01/16 13:27:33;;;;;;;3.30;2.05;;;7.10;1.00;;;;;;5032966;28;20631;-86
2023/01/16 13:30:04;;;;;;;1.73;1.63;;;7.10;1.00;;;;;;5032275;28;20184;-86
2023/01/16 13:32:34;;;;;;;3.20;1.95;;;7.20;1.00;;;;;;5031795;28;20320;-85
2023/01/16 13:35:08;;;;;;;2.85;2.25;;;7.10;1.00;;;;;;5030094;28;20251;-84
2023/01/16 13:37:52;;;;;;;3.50;2.25;;;7.20;1.00;;;;;;5033573;28;20191;-85
2023/01/16 13:40:34;;;;;;;3.20;1.60;;;7.40;1.00;;;;;;5032374;28;20256;-85
2023/01/16 13:45:49;;;;;;;2.20;2.00;;;7.30;1.00;;;;;;5033404;28;20228;-85
2023/01/16 13:48:19;;;;;;;3.03;1.75;;;7.10;1.00;;;;;;5033514;28;20216;-85
2023/01/16 13:50:52;;;;;;;2.58;2.20;;;7.40;1.00;;;;;;5032867;28;20204;-84
2023/01/16 13:53:22;;;;;;;2.55;1.65;;;7.20;1.00;;;;;;5031713;28;20253;-87
2023/01/16 13:56:00;;;;;;;1.75;1.60;;;7.10;16.00;;;;;;5028913;28;20228;-85
2023/01/16 13:58:28;;;;;;;2.60;2.40;;;6.90;1.00;;;;;;5026956;28;20193;-86
2023/01/16 14:01:00;;;;;;;1.77;1.67;;;7.10;1.00;;;;;;5031669;28;20269;-86
2023/01/16 14:03:29;;;;;;;5.18;2.38;;;7.10;1.00;;;;;;5027798;28;20215;-86
2023/01/16 14:06:18;;;;;;;3.75;2.28;;;7.10;1.00;;;;;;5027206;28;20232;-86
2023/01/16 14:11:36;;;;;;;3.33;3.00;;;7.20;1.00;;;;;;5025985;28;20220;-85
2023/01/16 14:17:17;;;;;;;2.20;2.00;;;7.00;1.00;;;;;;5024351;28;20188;-84
2023/01/16 14:19:54;;;;;;;3.08;2.58;;;7.20;1.00;;;;;;5023953;28;20687;-86
2023/01/16 14:25:18;;;;;;;1.70;1.60;;;6.90;1.00;;;;;;5040115;28;20257;-84
2023/01/16 14:27:51;;;;;;;2.00;1.80;;;6.90;1.00;;;;;;5039659;28;20249;-84
2023/01/16 14:30:21;;;;;;;5.18;1.90;;;6.90;1.00;;;;;;5039985;28;20199;-84
2023/01/16 14:32:53;;;;;;;3.60;1.83;;;6.80;1.00;;;;;;5024012;28;20220;-85
2023/01/16 14:35:23;;;;;;;1.70;1.52;;;6.80;1.00;;;;;;5026299;28;20225;-86
2023/01/16 14:37:57;;;;;;;3.78;1.85;;;6.90;1.00;;;;;;5023582;28;20566;-86
2023/01/16 14:55:12;;;;;;;2.38;2.17;;;6.80;1.00;;;;;;5028466;28;20177;-85
2023/01/16 14:55:48;;;;;;;4.22;2.10;;;6.60;1.00;;;;;;5024594;28;20267;-85